sensor_id;sensor_type;location;lat;lon;timestamp;P1;durP1;ratioP1;P2;durP2;ratioP2
53843;SDS011;39744;53.314;5.710;2023-03-20T00:02:24;10.70;;;3.72;;
53843;SDS011;39744;53.314;5.710;2023-03-20T00:04:50;12.75;;;4.50;;
53843;SDS011;39744;53.314;5.710;2023-03-20T00:07:16;10.75;;;4.30;;
53843;SDS011;39744;53.314;5.710;2023-03-20T00:09:42;12.32;;;4.43;;
53843;SDS011;39744;53.314;5.710;2023-03-20T00:12:16;12.90;;;4.30;;
53843;SDS011;39744;53.314;5.710;2023-03-20T00:14:43;16.58;;;4.68;;
53843;SDS011;39744;53.314;5.710;2023-03-20T00:17:19;14.68;;;4.53;;
53843;SDS011;39744;53.314;5.710;2023-03-20T00:19:45;15.43;;;5.07;;
53843;SDS011;39744;53.314;5.710;2023-03-20T00:22:11;10.95;;;4.55;;
53843;SDS011;39744;53.314;5.710;2023-03-20T00:24:37;12.60;;;4.53;;
53843;SDS011;39744;53.314;5.710;2023-03-20T00:27:03;11.68;;;4.68;;
53843;SDS011;39744;53.314;5.710;2023-03-20T00:29:30;11.60;;;4.43;;
53843;SDS011;39744;53.314;5.710;2023-03-20T00:31:57;12.73;;;4.65;;
53843;SDS011;39744;53.314;5.710;2023-03-20T00:34:25;15.93;;;5.28;;
53843;SDS011;39744;53.314;5.710;2023-03-20T00:36:54;11.95;;;4.60;;
53843;SDS011;39744;53.314;5.710;2023-03-20T00:39:24;19.58;;;5.68;;
53843;SDS011;39744;53.314;5.710;2023-03-20T00:41:54;11.45;;;4.97;;
53843;SDS011;39744;53.314;5.710;2023-03-20T00:46:57;14.10;;;5.13;;
53843;SDS011;39744;53.314;5.710;2023-03-20T00:49:25;13.63;;;4.28;;
53843;SDS011;39744;53.314;5.710;2023-03-20T00:51:52;13.70;;;4.78;;
53843;SDS011;39744;53.314;5.710;2023-03-20T00:54:18;13.20;;;4.72;;
53843;SDS011;39744;53.314;5.710;2023-03-20T00:56:45;12.07;;;4.72;;
53843;SDS011;39744;53.314;5.710;2023-03-20T00:59:17;11.93;;;5.35;;
53843;SDS011;39744;53.314;5.710;2023-03-20T01:01:44;13.48;;;4.55;;
53843;SDS011;39744;53.314;5.710;2023-03-20T01:04:11;15.90;;;5.05;;
53843;SDS011;39744;53.314;5.710;2023-03-20T01:06:37;14.63;;;4.60;;
53843;SDS011;39744;53.314;5.710;2023-03-20T01:09:03;13.70;;;5.00;;
53843;SDS011;39744;53.314;5.710;2023-03-20T01:11:29;17.75;;;4.95;;
53843;SDS011;39744;53.314;5.710;2023-03-20T01:13:56;12.07;;;4.55;;
53843;SDS011;39744;53.314;5.710;2023-03-20T01:16:22;12.25;;;4.53;;
53843;SDS011;39744;53.314;5.710;2023-03-20T01:18:49;18.30;;;5.22;;
53843;SDS011;39744;53.314;5.710;2023-03-20T01:21:16;20.27;;;5.68;;
53843;SDS011;39744;53.314;5.710;2023-03-20T01:23:42;15.25;;;5.05;;
53843;SDS011;39744;53.314;5.710;2023-03-20T01:26:19;14.15;;;4.80;;
53843;SDS011;39744;53.314;5.710;2023-03-20T01:28:46;20.00;;;6.00;;
53843;SDS011;39744;53.314;5.710;2023-03-20T01:31:13;14.02;;;4.85;;
53843;SDS011;39744;53.314;5.710;2023-03-20T01:33:39;18.40;;;4.78;;
53843;SDS011;39744;53.314;5.710;2023-03-20T01:36:08;17.10;;;5.07;;
53843;SDS011;39744;53.314;5.710;2023-03-20T01:38:34;17.65;;;5.22;;
53843;SDS011;39744;53.314;5.710;2023-03-20T01:41:00;19.45;;;5.40;;
53843;SDS011;39744;53.314;5.710;2023-03-20T01:43:28;17.60;;;4.80;;
53843;SDS011;39744;53.314;5.710;2023-03-20T01:46:00;23.13;;;5.22;;
53843;SDS011;39744;53.314;5.710;2023-03-20T01:48:31;19.33;;;5.50;;
53843;SDS011;39744;53.314;5.710;2023-03-20T01:51:01;22.17;;;5.05;;
53843;SDS011;39744;53.314;5.710;2023-03-20T01:53:27;14.55;;;5.75;;
53843;SDS011;39744;53.314;5.710;2023-03-20T01:55:55;14.77;;;5.30;;
53843;SDS011;39744;53.314;5.710;2023-03-20T01:58:24;15.30;;;5.00;;
53843;SDS011;39744;53.314;5.710;2023-03-20T02:00:52;16.17;;;5.85;;
53843;SDS011;39744;53.314;5.710;2023-03-20T02:03:19;19.60;;;5.70;;
53843;SDS011;39744;53.314;5.710;2023-03-20T02:05:45;19.70;;;5.97;;
53843;SDS011;39744;53.314;5.710;2023-03-20T02:08:17;18.35;;;5.05;;
53843;SDS011;39744;53.314;5.710;2023-03-20T02:10:45;19.50;;;5.38;;
53843;SDS011;39744;53.314;5.710;2023-03-20T02:13:11;14.65;;;5.43;;
53843;SDS011;39744;53.314;5.710;2023-03-20T02:15:54;15.10;;;5.40;;
53843;SDS011;39744;53.314;5.710;2023-03-20T02:18:20;16.48;;;5.32;;
53843;SDS011;39744;53.314;5.710;2023-03-20T02:23:43;14.95;;;5.45;;
53843;SDS011;39744;53.314;5.710;2023-03-20T02:26:35;16.88;;;5.45;;
53843;SDS011;39744;53.314;5.710;2023-03-20T02:32:05;16.40;;;6.22;;
53843;SDS011;39744;53.314;5.710;2023-03-20T02:34:40;17.40;;;6.45;;
53843;SDS011;39744;53.314;5.710;2023-03-20T02:42:57;15.73;;;6.32;;
53843;SDS011;39744;53.314;5.710;2023-03-20T02:45:28;16.05;;;6.50;;
53843;SDS011;39744;53.314;5.710;2023-03-20T02:48:03;24.45;;;6.35;;
53843;SDS011;39744;53.314;5.710;2023-03-20T02:53:29;16.52;;;6.28;;
53843;SDS011;39744;53.314;5.710;2023-03-20T02:56:16;19.08;;;6.40;;
53843;SDS011;39744;53.314;5.710;2023-03-20T03:01:20;16.00;;;5.80;;
53843;SDS011;39744;53.314;5.710;2023-03-20T03:03:52;17.88;;;6.20;;
53843;SDS011;39744;53.314;5.710;2023-03-20T03:06:21;14.77;;;6.80;;
53843;SDS011;39744;53.314;5.710;2023-03-20T03:08:50;16.33;;;6.50;;
53843;SDS011;39744;53.314;5.710;2023-03-20T03:11:19;22.23;;;6.47;;
53843;SDS011;39744;53.314;5.710;2023-03-20T03:13:49;13.38;;;5.90;;
53843;SDS011;39744;53.314;5.710;2023-03-20T03:16:21;15.18;;;5.65;;
53843;SDS011;39744;53.314;5.710;2023-03-20T03:18:49;15.30;;;6.20;;
53843;SDS011;39744;53.314;5.710;2023-03-20T03:21:18;13.95;;;5.57;;
53843;SDS011;39744;53.314;5.710;2023-03-20T03:23:45;13.30;;;6.38;;
53843;SDS011;39744;53.314;5.710;2023-03-20T03:26:23;13.55;;;6.03;;
53843;SDS011;39744;53.314;5.710;2023-03-20T03:28:50;14.27;;;5.55;;
53843;SDS011;39744;53.314;5.710;2023-03-20T03:31:19;15.57;;;5.35;;
53843;SDS011;39744;53.314;5.710;2023-03-20T03:33:49;12.40;;;5.95;;
53843;SDS011;39744;53.314;5.710;2023-03-20T03:39:23;13.95;;;5.85;;
53843;SDS011;39744;53.314;5.710;2023-03-20T03:44:40;12.27;;;5.57;;
53843;SDS011;39744;53.314;5.710;2023-03-20T03:47:12;18.33;;;5.95;;
53843;SDS011;39744;53.314;5.710;2023-03-20T03:49:41;13.43;;;5.45;;
53843;SDS011;39744;53.314;5.710;2023-03-20T03:52:13;18.30;;;6.47;;
53843;SDS011;39744;53.314;5.710;2023-03-20T03:57:07;18.88;;;6.43;;
53843;SDS011;39744;53.314;5.710;2023-03-20T03:59:35;12.65;;;5.47;;
53843;SDS011;39744;53.314;5.710;2023-03-20T04:02:03;15.80;;;6.07;;
53843;SDS011;39744;53.314;5.710;2023-03-20T04:04:32;16.25;;;6.65;;
53843;SDS011;39744;53.314;5.710;2023-03-20T04:06:58;14.73;;;6.28;;
53843;SDS011;39744;53.314;5.710;2023-03-20T04:09:24;12.93;;;6.18;;
53843;SDS011;39744;53.314;5.710;2023-03-20T04:11:51;15.52;;;6.93;;
53843;SDS011;39744;53.314;5.710;2023-03-20T04:14:18;16.35;;;6.28;;
53843;SDS011;39744;53.314;5.710;2023-03-20T04:16:44;15.43;;;6.80;;
53843;SDS011;39744;53.314;5.710;2023-03-20T04:19:10;16.02;;;6.68;;
53843;SDS011;39744;53.314;5.710;2023-03-20T04:21:36;19.20;;;6.95;;
53843;SDS011;39744;53.314;5.710;2023-03-20T04:24:02;15.75;;;6.90;;
53843;SDS011;39744;53.314;5.710;2023-03-20T04:26:28;21.88;;;8.13;;
53843;SDS011;39744;53.314;5.710;2023-03-20T04:28:54;18.17;;;7.90;;
53843;SDS011;39744;53.314;5.710;2023-03-20T04:31:21;24.08;;;8.73;;
53843;SDS011;39744;53.314;5.710;2023-03-20T04:33:47;22.15;;;8.70;;
53843;SDS011;39744;53.314;5.710;2023-03-20T04:36:13;22.63;;;10.35;;
53843;SDS011;39744;53.314;5.710;2023-03-20T04:38:39;23.20;;;10.45;;
53843;SDS011;39744;53.314;5.710;2023-03-20T04:41:05;24.48;;;10.45;;
53843;SDS011;39744;53.314;5.710;2023-03-20T04:43:32;20.77;;;10.35;;
53843;SDS011;39744;53.314;5.710;2023-03-20T04:45:58;26.75;;;11.15;;
53843;SDS011;39744;53.314;5.710;2023-03-20T04:48:24;23.98;;;10.07;;
53843;SDS011;39744;53.314;5.710;2023-03-20T04:50:52;24.40;;;10.90;;
53843;SDS011;39744;53.314;5.710;2023-03-20T04:53:18;22.80;;;10.48;;
53843;SDS011;39744;53.314;5.710;2023-03-20T04:55:44;25.33;;;11.55;;
53843;SDS011;39744;53.314;5.710;2023-03-20T04:58:10;22.92;;;12.02;;
53843;SDS011;39744;53.314;5.710;2023-03-20T05:00:37;25.23;;;12.20;;
53843;SDS011;39744;53.314;5.710;2023-03-20T05:03:03;26.50;;;12.25;;
53843;SDS011;39744;53.314;5.710;2023-03-20T05:05:29;25.10;;;12.40;;
53843;SDS011;39744;53.314;5.710;2023-03-20T05:07:55;29.35;;;13.10;;
53843;SDS011;39744;53.314;5.710;2023-03-20T05:10:21;26.77;;;13.02;;
53843;SDS011;39744;53.314;5.710;2023-03-20T05:12:47;29.35;;;13.07;;
53843;SDS011;39744;53.314;5.710;2023-03-20T05:15:13;28.88;;;13.77;;
53843;SDS011;39744;53.314;5.710;2023-03-20T05:17:39;25.40;;;13.15;;
53843;SDS011;39744;53.314;5.710;2023-03-20T05:20:05;32.25;;;13.27;;
53843;SDS011;39744;53.314;5.710;2023-03-20T05:22:31;29.60;;;13.95;;
53843;SDS011;39744;53.314;5.710;2023-03-20T05:24:58;27.27;;;13.20;;
53843;SDS011;39744;53.314;5.710;2023-03-20T05:27:25;26.25;;;13.73;;
53843;SDS011;39744;53.314;5.710;2023-03-20T05:29:51;28.13;;;14.50;;
53843;SDS011;39744;53.314;5.710;2023-03-20T05:32:17;29.42;;;14.10;;
53843;SDS011;39744;53.314;5.710;2023-03-20T05:34:43;28.75;;;13.25;;
53843;SDS011;39744;53.314;5.710;2023-03-20T05:37:10;29.92;;;13.05;;
53843;SDS011;39744;53.314;5.710;2023-03-20T05:39:36;29.55;;;12.40;;
53843;SDS011;39744;53.314;5.710;2023-03-20T05:42:02;28.25;;;13.15;;
53843;SDS011;39744;53.314;5.710;2023-03-20T05:44:28;29.00;;;13.00;;
53843;SDS011;39744;53.314;5.710;2023-03-20T05:46:54;25.23;;;12.80;;
53843;SDS011;39744;53.314;5.710;2023-03-20T05:49:20;25.98;;;12.80;;
53843;SDS011;39744;53.314;5.710;2023-03-20T05:51:46;23.77;;;12.30;;
53843;SDS011;39744;53.314;5.710;2023-03-20T05:54:12;25.88;;;12.68;;
53843;SDS011;39744;53.314;5.710;2023-03-20T05:56:38;28.08;;;12.48;;
53843;SDS011;39744;53.314;5.710;2023-03-20T05:59:04;28.67;;;12.48;;
53843;SDS011;39744;53.314;5.710;2023-03-20T06:01:30;22.83;;;12.05;;
53843;SDS011;39744;53.314;5.710;2023-03-20T06:03:57;26.35;;;12.00;;
53843;SDS011;39744;53.314;5.710;2023-03-20T06:06:22;20.95;;;11.05;;
53843;SDS011;39744;53.314;5.710;2023-03-20T06:08:48;24.55;;;11.00;;
53843;SDS011;39744;53.314;5.710;2023-03-20T06:11:15;26.17;;;12.07;;
53843;SDS011;39744;53.314;5.710;2023-03-20T06:13:41;22.13;;;11.18;;
53843;SDS011;39744;53.314;5.710;2023-03-20T06:16:07;26.30;;;11.95;;
53843;SDS011;39744;53.314;5.710;2023-03-20T06:18:33;32.38;;;11.73;;
53843;SDS011;39744;53.314;5.710;2023-03-20T06:20:59;22.60;;;11.32;;
53843;SDS011;39744;53.314;5.710;2023-03-20T06:23:26;29.92;;;12.40;;
53843;SDS011;39744;53.314;5.710;2023-03-20T06:25:52;27.00;;;11.70;;
53843;SDS011;39744;53.314;5.710;2023-03-20T06:28:18;25.02;;;11.38;;
53843;SDS011;39744;53.314;5.710;2023-03-20T06:30:44;26.35;;;11.98;;
53843;SDS011;39744;53.314;5.710;2023-03-20T06:33:11;22.67;;;11.25;;
53843;SDS011;39744;53.314;5.710;2023-03-20T06:35:37;28.33;;;11.75;;
53843;SDS011;39744;53.314;5.710;2023-03-20T06:38:03;28.80;;;11.88;;
53843;SDS011;39744;53.314;5.710;2023-03-20T06:40:29;27.33;;;12.43;;
53843;SDS011;39744;53.314;5.710;2023-03-20T06:42:55;24.48;;;11.90;;
53843;SDS011;39744;53.314;5.710;2023-03-20T06:45:22;29.05;;;12.35;;
53843;SDS011;39744;53.314;5.710;2023-03-20T06:47:48;24.65;;;11.88;;
53843;SDS011;39744;53.314;5.710;2023-03-20T06:50:14;23.73;;;12.27;;
53843;SDS011;39744;53.314;5.710;2023-03-20T06:52:40;23.65;;;12.30;;
53843;SDS011;39744;53.314;5.710;2023-03-20T06:55:06;26.25;;;13.20;;
53843;SDS011;39744;53.314;5.710;2023-03-20T06:57:33;28.10;;;13.73;;
53843;SDS011;39744;53.314;5.710;2023-03-20T06:59:59;27.98;;;13.90;;
53843;SDS011;39744;53.314;5.710;2023-03-20T07:02:25;26.75;;;13.40;;
53843;SDS011;39744;53.314;5.710;2023-03-20T07:04:52;30.67;;;13.05;;
53843;SDS011;39744;53.314;5.710;2023-03-20T07:07:18;28.10;;;12.20;;
53843;SDS011;39744;53.314;5.710;2023-03-20T07:09:44;23.08;;;12.15;;
53843;SDS011;39744;53.314;5.710;2023-03-20T07:12:14;26.52;;;12.75;;
53843;SDS011;39744;53.314;5.710;2023-03-20T07:14:43;25.85;;;12.32;;
53843;SDS011;39744;53.314;5.710;2023-03-20T07:17:09;27.52;;;12.57;;
53843;SDS011;39744;53.314;5.710;2023-03-20T07:19:36;24.52;;;13.23;;
53843;SDS011;39744;53.314;5.710;2023-03-20T07:22:03;25.35;;;13.15;;
53843;SDS011;39744;53.314;5.710;2023-03-20T07:24:30;28.05;;;13.63;;
53843;SDS011;39744;53.314;5.710;2023-03-20T07:26:56;26.27;;;13.38;;
53843;SDS011;39744;53.314;5.710;2023-03-20T07:29:22;29.33;;;13.18;;
53843;SDS011;39744;53.314;5.710;2023-03-20T07:31:49;24.80;;;12.93;;
53843;SDS011;39744;53.314;5.710;2023-03-20T07:34:14;31.80;;;14.35;;
53843;SDS011;39744;53.314;5.710;2023-03-20T07:36:41;30.88;;;13.32;;
53843;SDS011;39744;53.314;5.710;2023-03-20T07:39:07;32.85;;;13.70;;
53843;SDS011;39744;53.314;5.710;2023-03-20T07:41:34;26.30;;;13.48;;
53843;SDS011;39744;53.314;5.710;2023-03-20T07:44:00;25.27;;;13.02;;
53843;SDS011;39744;53.314;5.710;2023-03-20T07:46:27;28.65;;;13.23;;
53843;SDS011;39744;53.314;5.710;2023-03-20T07:48:53;30.67;;;13.23;;
53843;SDS011;39744;53.314;5.710;2023-03-20T07:51:22;25.08;;;12.10;;
53843;SDS011;39744;53.314;5.710;2023-03-20T07:53:48;26.17;;;13.02;;
53843;SDS011;39744;53.314;5.710;2023-03-20T07:56:14;25.88;;;12.80;;
53843;SDS011;39744;53.314;5.710;2023-03-20T07:58:40;29.15;;;13.90;;
53843;SDS011;39744;53.314;5.710;2023-03-20T08:01:06;31.20;;;12.80;;
53843;SDS011;39744;53.314;5.710;2023-03-20T08:03:32;27.20;;;13.20;;
53843;SDS011;39744;53.314;5.710;2023-03-20T08:05:58;23.27;;;12.48;;
53843;SDS011;39744;53.314;5.710;2023-03-20T08:08:25;30.50;;;12.80;;
53843;SDS011;39744;53.314;5.710;2023-03-20T08:10:51;22.58;;;12.13;;
53843;SDS011;39744;53.314;5.710;2023-03-20T08:13:17;26.70;;;13.35;;
53843;SDS011;39744;53.314;5.710;2023-03-20T08:15:45;27.27;;;12.68;;
53843;SDS011;39744;53.314;5.710;2023-03-20T08:18:11;24.38;;;12.57;;
53843;SDS011;39744;53.314;5.710;2023-03-20T08:20:37;24.05;;;12.20;;
53843;SDS011;39744;53.314;5.710;2023-03-20T08:23:03;32.40;;;12.43;;
53843;SDS011;39744;53.314;5.710;2023-03-20T08:25:29;26.60;;;11.30;;
53843;SDS011;39744;53.314;5.710;2023-03-20T08:27:57;25.75;;;11.43;;
53843;SDS011;39744;53.314;5.710;2023-03-20T08:30:25;25.08;;;10.45;;
53843;SDS011;39744;53.314;5.710;2023-03-20T08:32:51;22.63;;;10.13;;
53843;SDS011;39744;53.314;5.710;2023-03-20T08:35:17;20.60;;;9.45;;
53843;SDS011;39744;53.314;5.710;2023-03-20T08:37:43;22.02;;;9.82;;
53843;SDS011;39744;53.314;5.710;2023-03-20T08:40:09;25.20;;;9.93;;
53843;SDS011;39744;53.314;5.710;2023-03-20T08:42:35;23.00;;;10.18;;
53843;SDS011;39744;53.314;5.710;2023-03-20T08:45:01;21.13;;;9.02;;
53843;SDS011;39744;53.314;5.710;2023-03-20T08:47:28;21.15;;;9.57;;
53843;SDS011;39744;53.314;5.710;2023-03-20T08:49:54;22.73;;;8.93;;
53843;SDS011;39744;53.314;5.710;2023-03-20T08:52:21;22.60;;;9.40;;
53843;SDS011;39744;53.314;5.710;2023-03-20T08:54:47;23.23;;;8.55;;
53843;SDS011;39744;53.314;5.710;2023-03-20T08:57:13;31.02;;;9.02;;
53843;SDS011;39744;53.314;5.710;2023-03-20T08:59:39;21.00;;;8.63;;
53843;SDS011;39744;53.314;5.710;2023-03-20T09:02:05;20.95;;;8.52;;
53843;SDS011;39744;53.314;5.710;2023-03-20T09:04:31;22.63;;;8.52;;
53843;SDS011;39744;53.314;5.710;2023-03-20T09:06:57;19.38;;;7.78;;
53843;SDS011;39744;53.314;5.710;2023-03-20T09:09:25;21.80;;;9.00;;
53843;SDS011;39744;53.314;5.710;2023-03-20T09:11:53;23.33;;;8.07;;
53843;SDS011;39744;53.314;5.710;2023-03-20T09:14:20;17.30;;;7.95;;
53843;SDS011;39744;53.314;5.710;2023-03-20T09:16:47;19.98;;;7.75;;
53843;SDS011;39744;53.314;5.710;2023-03-20T09:19:13;16.67;;;6.65;;
53843;SDS011;39744;53.314;5.710;2023-03-20T09:21:39;20.55;;;7.40;;
53843;SDS011;39744;53.314;5.710;2023-03-20T09:24:05;18.42;;;6.47;;
53843;SDS011;39744;53.314;5.710;2023-03-20T09:26:31;24.45;;;6.63;;
53843;SDS011;39744;53.314;5.710;2023-03-20T09:28:57;24.70;;;6.95;;
53843;SDS011;39744;53.314;5.710;2023-03-20T09:31:24;21.52;;;6.85;;
53843;SDS011;39744;53.314;5.710;2023-03-20T09:33:50;19.80;;;6.55;;
53843;SDS011;39744;53.314;5.710;2023-03-20T09:36:17;17.65;;;5.95;;
53843;SDS011;39744;53.314;5.710;2023-03-20T09:38:43;18.90;;;6.10;;
53843;SDS011;39744;53.314;5.710;2023-03-20T09:41:19;19.98;;;6.95;;
53843;SDS011;39744;53.314;5.710;2023-03-20T09:46:18;19.02;;;6.13;;
53843;SDS011;39744;53.314;5.710;2023-03-20T09:49:06;21.42;;;5.80;;
53843;SDS011;39744;53.314;5.710;2023-03-20T09:56:43;21.02;;;5.88;;
53843;SDS011;39744;53.314;5.710;2023-03-20T09:59:10;17.73;;;5.82;;
53843;SDS011;39744;53.314;5.710;2023-03-20T10:01:46;17.80;;;5.35;;
53843;SDS011;39744;53.314;5.710;2023-03-20T10:04:13;21.92;;;5.95;;
53843;SDS011;39744;53.314;5.710;2023-03-20T10:06:39;19.45;;;5.93;;
53843;SDS011;39744;53.314;5.710;2023-03-20T10:09:16;19.17;;;5.55;;
53843;SDS011;39744;53.314;5.710;2023-03-20T10:21:53;25.13;;;5.80;;
53843;SDS011;39744;53.314;5.710;2023-03-20T10:24:28;20.13;;;4.32;;
53843;SDS011;39744;53.314;5.710;2023-03-20T10:26:57;25.23;;;4.43;;
53843;SDS011;39744;53.314;5.710;2023-03-20T10:29:28;19.85;;;3.97;;
53843;SDS011;39744;53.314;5.710;2023-03-20T10:33:01;25.10;;;4.90;;
53843;SDS011;39744;53.314;5.710;2023-03-20T10:37:26;13.18;;;3.95;;
53843;SDS011;39744;53.314;5.710;2023-03-20T10:42:41;22.48;;;4.75;;
53843;SDS011;39744;53.314;5.710;2023-03-20T10:47:39;17.30;;;4.30;;
53843;SDS011;39744;53.314;5.710;2023-03-20T10:50:09;18.88;;;4.30;;
53843;SDS011;39744;53.314;5.710;2023-03-20T10:52:38;15.88;;;4.45;;
53843;SDS011;39744;53.314;5.710;2023-03-20T10:55:26;21.13;;;4.50;;
53843;SDS011;39744;53.314;5.710;2023-03-20T10:57:52;22.40;;;4.90;;
53843;SDS011;39744;53.314;5.710;2023-03-20T11:00:22;18.02;;;4.80;;
53843;SDS011;39744;53.314;5.710;2023-03-20T11:02:49;18.33;;;4.50;;
53843;SDS011;39744;53.314;5.710;2023-03-20T11:05:27;14.80;;;3.60;;
53843;SDS011;39744;53.314;5.710;2023-03-20T11:08:08;16.75;;;4.20;;
53843;SDS011;39744;53.314;5.710;2023-03-20T11:10:36;16.55;;;3.70;;
53843;SDS011;39744;53.314;5.710;2023-03-20T11:13:24;15.73;;;4.32;;
53843;SDS011;39744;53.314;5.710;2023-03-20T11:15:48;19.63;;;3.75;;
53843;SDS011;39744;53.314;5.710;2023-03-20T11:18:16;15.85;;;4.30;;
53843;SDS011;39744;53.314;5.710;2023-03-20T11:23:14;12.18;;;3.83;;
53843;SDS011;39744;53.314;5.710;2023-03-20T11:25:57;15.30;;;4.18;;
53843;SDS011;39744;53.314;5.710;2023-03-20T11:28:37;11.30;;;3.60;;
53843;SDS011;39744;53.314;5.710;2023-03-20T11:33:36;14.27;;;4.30;;
53843;SDS011;39744;53.314;5.710;2023-03-20T11:36:09;13.70;;;4.10;;
53843;SDS011;39744;53.314;5.710;2023-03-20T11:38:35;11.65;;;3.90;;
53843;SDS011;39744;53.314;5.710;2023-03-20T11:41:17;14.97;;;3.57;;
53843;SDS011;39744;53.314;5.710;2023-03-20T11:43:44;10.95;;;3.85;;
53843;SDS011;39744;53.314;5.710;2023-03-20T11:46:11;13.65;;;3.90;;
53843;SDS011;39744;53.314;5.710;2023-03-20T11:48:39;10.02;;;3.50;;
53843;SDS011;39744;53.314;5.710;2023-03-20T11:51:09;10.00;;;4.05;;
53843;SDS011;39744;53.314;5.710;2023-03-20T11:53:40;9.20;;;3.65;;
53843;SDS011;39744;53.314;5.710;2023-03-20T11:56:09;7.45;;;3.40;;
53843;SDS011;39744;53.314;5.710;2023-03-20T11:58:37;7.80;;;3.75;;
53843;SDS011;39744;53.314;5.710;2023-03-20T12:01:06;6.90;;;3.08;;
53843;SDS011;39744;53.314;5.710;2023-03-20T12:05:58;8.10;;;3.30;;
53843;SDS011;39744;53.314;5.710;2023-03-20T12:08:25;5.30;;;2.85;;
53843;SDS011;39744;53.314;5.710;2023-03-20T12:10:53;5.85;;;3.00;;
53843;SDS011;39744;53.314;5.710;2023-03-20T12:13:21;5.88;;;2.95;;
53843;SDS011;39744;53.314;5.710;2023-03-20T12:15:49;8.90;;;2.90;;
53843;SDS011;39744;53.314;5.710;2023-03-20T12:23:30;6.60;;;3.17;;
53843;SDS011;39744;53.314;5.710;2023-03-20T12:25:58;5.97;;;2.90;;
53843;SDS011;39744;53.314;5.710;2023-03-20T12:28:32;7.30;;;3.17;;
53843;SDS011;39744;53.314;5.710;2023-03-20T12:33:59;5.35;;;3.15;;
53843;SDS011;39744;53.314;5.710;2023-03-20T12:36:31;5.90;;;3.20;;
53843;SDS011;39744;53.314;5.710;2023-03-20T12:38:57;5.38;;;3.13;;
53843;SDS011;39744;53.314;5.710;2023-03-20T12:41:25;6.55;;;3.13;;
53843;SDS011;39744;53.314;5.710;2023-03-20T12:46:34;5.43;;;2.97;;
53843;SDS011;39744;53.314;5.710;2023-03-20T12:49:11;4.97;;;3.22;;
53843;SDS011;39744;53.314;5.710;2023-03-20T12:54:12;7.47;;;3.33;;
53843;SDS011;39744;53.314;5.710;2023-03-20T13:07:16;6.13;;;3.00;;
53843;SDS011;39744;53.314;5.710;2023-03-20T13:17:42;5.07;;;2.97;;
53843;SDS011;39744;53.314;5.710;2023-03-20T13:22:50;5.90;;;3.38;;
53843;SDS011;39744;53.314;5.710;2023-03-20T13:27:44;6.25;;;3.80;;
53843;SDS011;39744;53.314;5.710;2023-03-20T13:30:26;7.68;;;3.70;;
53843;SDS011;39744;53.314;5.710;2023-03-20T13:32:56;6.97;;;3.90;;
53843;SDS011;39744;53.314;5.710;2023-03-20T13:35:38;5.73;;;3.70;;
53843;SDS011;39744;53.314;5.710;2023-03-20T13:38:12;6.68;;;3.80;;
53843;SDS011;39744;53.314;5.710;2023-03-20T13:45:40;6.57;;;3.47;;
53843;SDS011;39744;53.314;5.710;2023-03-20T13:48:24;5.75;;;3.40;;
53843;SDS011;39744;53.314;5.710;2023-03-20T13:51:00;7.13;;;3.90;;
53843;SDS011;39744;53.314;5.710;2023-03-20T13:56:29;7.78;;;4.10;;
53843;SDS011;39744;53.314;5.710;2023-03-20T14:04:00;8.73;;;4.95;;
53843;SDS011;39744;53.314;5.710;2023-03-20T14:08:56;9.90;;;4.95;;
53843;SDS011;39744;53.314;5.710;2023-03-20T14:13:49;9.15;;;4.80;;
53843;SDS011;39744;53.314;5.710;2023-03-20T14:16:17;8.80;;;5.00;;
53843;SDS011;39744;53.314;5.710;2023-03-20T14:18:44;10.20;;;5.15;;
53843;SDS011;39744;53.314;5.710;2023-03-20T14:21:14;9.07;;;4.47;;
53843;SDS011;39744;53.314;5.710;2023-03-20T14:23:43;8.85;;;4.75;;
53843;SDS011;39744;53.314;5.710;2023-03-20T14:26:27;8.65;;;5.20;;
53843;SDS011;39744;53.314;5.710;2023-03-20T14:29:01;9.00;;;5.55;;
53843;SDS011;39744;53.314;5.710;2023-03-20T14:31:28;8.45;;;4.85;;
53843;SDS011;39744;53.314;5.710;2023-03-20T14:36:50;7.60;;;4.70;;
53843;SDS011;39744;53.314;5.710;2023-03-20T14:55:12;9.10;;;5.25;;
53843;SDS011;39744;53.314;5.710;2023-03-20T14:57:38;7.43;;;4.82;;
53843;SDS011;39744;53.314;5.710;2023-03-20T15:00:05;8.95;;;5.43;;
53843;SDS011;39744;53.314;5.710;2023-03-20T15:02:41;10.35;;;5.75;;
53843;SDS011;39744;53.314;5.710;2023-03-20T15:05:27;10.13;;;6.00;;
53843;SDS011;39744;53.314;5.710;2023-03-20T15:07:55;11.02;;;6.07;;
53843;SDS011;39744;53.314;5.710;2023-03-20T15:10:21;12.43;;;5.93;;
53843;SDS011;39744;53.314;5.710;2023-03-20T15:12:47;12.27;;;6.38;;
53843;SDS011;39744;53.314;5.710;2023-03-20T15:15:22;13.65;;;6.15;;
53843;SDS011;39744;53.314;5.710;2023-03-20T15:17:49;12.55;;;6.28;;
53843;SDS011;39744;53.314;5.710;2023-03-20T15:20:19;10.38;;;6.15;;
53843;SDS011;39744;53.314;5.710;2023-03-20T15:22:46;11.40;;;5.82;;
53843;SDS011;39744;53.314;5.710;2023-03-20T15:25:16;15.45;;;6.40;;
53843;SDS011;39744;53.314;5.710;2023-03-20T15:27:42;11.35;;;5.68;;
53843;SDS011;39744;53.314;5.710;2023-03-20T15:30:09;9.52;;;4.97;;
53843;SDS011;39744;53.314;5.710;2023-03-20T15:32:39;10.88;;;5.25;;
53843;SDS011;39744;53.314;5.710;2023-03-20T15:35:09;8.50;;;4.60;;
53843;SDS011;39744;53.314;5.710;2023-03-20T15:37:35;7.22;;;4.60;;
53843;SDS011;39744;53.314;5.710;2023-03-20T15:40:09;8.18;;;4.43;;
53843;SDS011;39744;53.314;5.710;2023-03-20T15:42:35;7.97;;;4.35;;
53843;SDS011;39744;53.314;5.710;2023-03-20T15:45:12;8.63;;;4.93;;
53843;SDS011;39744;53.314;5.710;2023-03-20T15:47:40;8.10;;;4.30;;
53843;SDS011;39744;53.314;5.710;2023-03-20T15:50:11;8.30;;;4.57;;
53843;SDS011;39744;53.314;5.710;2023-03-20T15:52:39;11.30;;;4.78;;
53843;SDS011;39744;53.314;5.710;2023-03-20T15:55:06;7.30;;;4.22;;
53843;SDS011;39744;53.314;5.710;2023-03-20T15:57:37;8.95;;;5.30;;
53843;SDS011;39744;53.314;5.710;2023-03-20T16:00:04;7.60;;;5.03;;
53843;SDS011;39744;53.314;5.710;2023-03-20T16:02:30;8.55;;;5.10;;
53843;SDS011;39744;53.314;5.710;2023-03-20T16:04:58;12.25;;;5.55;;
53843;SDS011;39744;53.314;5.710;2023-03-20T16:07:31;7.72;;;4.70;;
53843;SDS011;39744;53.314;5.710;2023-03-20T16:09:57;9.60;;;4.97;;
53843;SDS011;39744;53.314;5.710;2023-03-20T16:12:24;8.52;;;4.45;;
53843;SDS011;39744;53.314;5.710;2023-03-20T16:14:51;8.20;;;4.70;;
53843;SDS011;39744;53.314;5.710;2023-03-20T16:17:17;7.65;;;4.10;;
53843;SDS011;39744;53.314;5.710;2023-03-20T16:19:45;8.05;;;4.82;;
53843;SDS011;39744;53.314;5.710;2023-03-20T16:22:14;7.88;;;4.50;;
53843;SDS011;39744;53.314;5.710;2023-03-20T16:24:43;8.65;;;5.07;;
53843;SDS011;39744;53.314;5.710;2023-03-20T16:27:12;10.15;;;4.93;;
53843;SDS011;39744;53.314;5.710;2023-03-20T16:29:41;9.13;;;5.35;;
53843;SDS011;39744;53.314;5.710;2023-03-20T16:32:14;10.60;;;5.25;;
53843;SDS011;39744;53.314;5.710;2023-03-20T16:34:44;9.60;;;5.20;;
53843;SDS011;39744;53.314;5.710;2023-03-20T16:37:35;8.48;;;5.28;;
53843;SDS011;39744;53.314;5.710;2023-03-20T16:42:28;8.88;;;5.00;;
53843;SDS011;39744;53.314;5.710;2023-03-20T16:44:55;11.60;;;5.60;;
53843;SDS011;39744;53.314;5.710;2023-03-20T16:47:34;9.73;;;5.40;;
53843;SDS011;39744;53.314;5.710;2023-03-20T16:52:29;10.77;;;6.25;;
53843;SDS011;39744;53.314;5.710;2023-03-20T16:54:57;10.77;;;5.70;;
53843;SDS011;39744;53.314;5.710;2023-03-20T16:57:23;12.98;;;6.70;;
53843;SDS011;39744;53.314;5.710;2023-03-20T16:59:50;12.75;;;6.97;;
53843;SDS011;39744;53.314;5.710;2023-03-20T17:04:47;12.13;;;7.10;;